Terminal Aerodrome Forecast
Issued by NWS Shreveport, LA

Home | Current Version | Previous Version | Text Only | Print | Product List | Glossary On
Versions: 1 2 3 4 5 6 7 8 9 10 11 12
000
FTUS44 KSHV 141100
TAFSHV
TAF
KSHV 141122Z 1412/1512 22004KT P6SM SCT250
     FM141700 24008KT P6SM SCT050
     FM150400 21006KT P6SM BKN250
     FM150800 20008KT P6SM VCTS SCT040 OVC080CB=

USA.gov is the U.S. government's official web portal to all federal, state and local government web resources and services.